createdAt,value
2019-02-21T00:02:24.653Z,11.80
2019-02-21T00:04:54.960Z,12.47
2019-02-21T00:07:25.300Z,12.20
2019-02-21T00:09:55.900Z,12.07
2019-02-21T00:12:26.779Z,12.50
2019-02-21T00:14:57.138Z,12.67
2019-02-21T00:17:27.610Z,12.83
2019-02-21T00:19:57.952Z,13.10
2019-02-21T00:22:28.335Z,13.43
2019-02-21T00:24:59.102Z,13.23
2019-02-21T00:27:30.349Z,13.30
2019-02-21T00:30:00.980Z,13.63
2019-02-21T00:32:31.597Z,13.93
2019-02-21T00:35:01.993Z,13.30
2019-02-21T00:37:32.682Z,13.13
2019-02-21T00:40:03.048Z,13.53
2019-02-21T00:42:33.351Z,12.83
2019-02-21T00:45:03.714Z,13.03
2019-02-21T00:47:34.066Z,13.57
2019-02-21T00:50:04.840Z,12.47
2019-02-21T00:52:35.627Z,12.80
2019-02-21T00:55:06.233Z,13.00
2019-02-21T00:57:36.658Z,12.70
2019-02-21T01:00:08.869Z,12.47
2019-02-21T01:02:39.521Z,12.97
2019-02-21T01:05:09.929Z,12.53
2019-02-21T01:07:40.322Z,11.93
2019-02-21T01:10:10.758Z,11.80
2019-02-21T01:12:41.131Z,11.77
2019-02-21T01:15:11.650Z,11.70
2019-02-21T01:17:42.009Z,11.97
2019-02-21T01:20:12.668Z,12.03
2019-02-21T01:22:43.446Z,11.90
2019-02-21T01:25:14.341Z,11.40
2019-02-21T01:27:45.012Z,11.57
2019-02-21T01:30:15.752Z,11.33
2019-02-21T01:32:46.307Z,11.67
2019-02-21T01:35:16.703Z,11.17
2019-02-21T01:38:06.161Z,10.80
2019-02-21T01:40:36.521Z,11.17
2019-02-21T01:43:06.902Z,11.90
2019-02-21T01:45:37.523Z,11.87
2019-02-21T01:48:08.105Z,11.93
2019-02-21T01:50:38.827Z,12.27
2019-02-21T01:53:09.415Z,12.27
2019-02-21T01:55:40.874Z,12.60
2019-02-21T01:58:11.218Z,12.70
2019-02-21T02:00:41.608Z,12.57
2019-02-21T02:03:11.958Z,13.40
2019-02-21T02:05:44.410Z,13.40
2019-02-21T02:08:15.029Z,13.47
2019-02-21T02:10:45.581Z,12.90
2019-02-21T02:13:24.073Z,13.87
2019-02-21T02:15:48.038Z,13.50
2019-02-21T02:18:18.375Z,14.47
2019-02-21T02:20:48.716Z,14.47
2019-02-21T02:23:19.502Z,14.17
2019-02-21T02:25:49.874Z,14.37
2019-02-21T02:28:20.252Z,14.77
2019-02-21T02:30:51.007Z,15.37
2019-02-21T02:33:22.137Z,15.10
2019-02-21T02:35:52.513Z,13.90
2019-02-21T02:38:23.234Z,15.07
2019-02-21T02:40:53.856Z,16.00
2019-02-21T02:43:24.566Z,14.63
2019-02-21T02:45:54.925Z,14.83
2019-02-21T02:48:25.581Z,15.50
2019-02-21T02:50:56.268Z,14.83
2019-02-21T02:53:26.628Z,15.13
2019-02-21T02:55:57.054Z,16.10
2019-02-21T02:58:27.900Z,14.53
2019-02-21T03:00:59.013Z,14.93
2019-02-21T03:03:29.747Z,15.37
2019-02-21T03:06:00.125Z,15.63
2019-02-21T03:08:30.759Z,15.60
2019-02-21T03:11:01.132Z,15.23
2019-02-21T03:13:31.750Z,15.00
2019-02-21T03:16:02.781Z,14.77
2019-02-21T03:18:35.195Z,15.37
2019-02-21T03:21:05.527Z,15.83
2019-02-21T03:23:35.908Z,16.37
2019-02-21T03:26:06.255Z,15.83
2019-02-21T03:28:36.607Z,16.10
2019-02-21T03:31:06.950Z,16.30
2019-02-21T03:33:37.460Z,15.27
2019-02-21T03:36:07.872Z,16.40
2019-02-21T03:38:38.302Z,16.10
2019-02-21T03:41:08.696Z,15.43
2019-02-21T03:43:39.068Z,17.03
2019-02-21T03:46:09.406Z,16.30
2019-02-21T03:48:39.778Z,16.53
2019-02-21T03:51:10.134Z,16.33
2019-02-21T03:53:40.769Z,16.40
2019-02-21T03:56:11.582Z,17.13
2019-02-21T03:58:42.011Z,16.47
2019-02-21T04:01:12.884Z,16.40
2019-02-21T04:03:43.700Z,16.87
2019-02-21T04:06:14.128Z,17.03
2019-02-21T04:08:44.556Z,17.33
2019-02-21T04:11:14.872Z,16.23
2019-02-21T04:13:45.351Z,16.53
2019-02-21T04:16:15.708Z,17.70
2019-02-21T04:18:46.069Z,17.87
2019-02-21T04:21:16.434Z,18.03
2019-02-21T04:23:47.386Z,18.33
2019-02-21T04:26:18.012Z,19.03
2019-02-21T04:28:48.385Z,19.10
2019-02-21T04:31:18.972Z,19.80
2019-02-21T04:33:49.323Z,19.80
2019-02-21T04:36:19.639Z,19.17
2019-02-21T04:38:50.521Z,19.53
2019-02-21T04:41:21.198Z,18.90
2019-02-21T04:43:51.828Z,20.63
2019-02-21T04:46:22.159Z,20.50
2019-02-21T04:48:52.493Z,20.10
2019-02-21T04:51:22.802Z,20.20
2019-02-21T04:53:53.812Z,20.03
2019-02-21T04:56:25.264Z,20.83
2019-02-21T04:58:55.879Z,20.63
2019-02-21T05:01:26.606Z,20.60
2019-02-21T05:03:57.348Z,21.03
2019-02-21T05:06:27.682Z,20.93
2019-02-21T05:08:58.347Z,21.63
2019-02-21T05:11:29.048Z,21.70
2019-02-21T05:13:59.397Z,21.67
2019-02-21T05:16:29.781Z,22.27
2019-02-21T05:19:00.375Z,22.40
2019-02-21T05:21:31.017Z,22.13
2019-02-21T05:24:01.416Z,22.43
2019-02-21T05:26:40.071Z,21.77
2019-02-21T05:29:12.311Z,22.90
2019-02-21T05:31:55.756Z,22.43
2019-02-21T05:34:32.887Z,21.63
2019-02-21T05:37:14.786Z,20.43
2019-02-21T05:40:10.132Z,22.30
2019-02-21T05:43:12.083Z,21.80
2019-02-21T05:45:58.905Z,22.63
2019-02-21T05:48:48.744Z,21.40
2019-02-21T05:51:37.079Z,22.50
2019-02-21T05:54:23.296Z,22.73
2019-02-21T05:56:58.958Z,21.20
2019-02-21T05:59:38.509Z,21.97
2019-02-21T06:02:28.153Z,22.50
2019-02-21T06:05:23.254Z,22.43
2019-02-21T06:08:07.219Z,23.03
2019-02-21T06:10:43.679Z,23.80
2019-02-21T06:13:31.987Z,24.07
2019-02-21T06:16:40.325Z,23.90
2019-02-21T06:19:45.269Z,23.87
2019-02-21T06:22:27.555Z,25.83
2019-02-21T06:25:16.119Z,26.40
2019-02-21T06:28:08.898Z,24.63
2019-02-21T06:30:45.982Z,25.33
2019-02-21T06:33:16.337Z,26.63
2019-02-21T06:35:46.778Z,26.93
2019-02-21T06:38:17.109Z,26.50
2019-02-21T06:40:47.532Z,27.97
2019-02-21T06:43:17.922Z,27.67
2019-02-21T06:45:48.354Z,27.10
2019-02-21T06:48:18.696Z,28.17
2019-02-21T06:50:55.271Z,28.53
2019-02-21T06:53:25.985Z,28.67
2019-02-21T06:55:56.660Z,27.87
2019-02-21T06:58:27.320Z,26.20
2019-02-21T07:00:58.268Z,28.60
2019-02-21T07:03:29.180Z,27.37
2019-02-21T07:05:59.512Z,27.83
2019-02-21T07:08:30.122Z,26.40
2019-02-21T07:11:06.183Z,26.43
2019-02-21T07:13:32.587Z,27.70
2019-02-21T07:16:02.975Z,26.40
2019-02-21T07:18:33.586Z,25.70
2019-02-21T07:21:04.031Z,26.93
2019-02-21T07:23:43.052Z,26.13
2019-02-21T07:26:09.365Z,26.10
2019-02-21T07:28:41.639Z,25.80
2019-02-21T07:31:11.875Z,24.33
2019-02-21T07:33:43.161Z,24.53
2019-02-21T07:36:13.762Z,25.03
2019-02-21T07:38:44.384Z,24.33
2019-02-21T07:41:18.428Z,23.80
2019-02-21T07:43:47.469Z,24.67
2019-02-21T07:46:17.908Z,23.83
2019-02-21T07:48:48.202Z,23.90
2019-02-21T07:51:18.619Z,23.40
2019-02-21T07:53:49.008Z,22.10
2019-02-21T07:56:19.349Z,21.50
2019-02-21T07:58:49.718Z,21.67
2019-02-21T08:01:20.364Z,22.53
2019-02-21T08:03:50.698Z,22.23
2019-02-21T08:06:21.091Z,23.83
2019-02-21T08:08:52.144Z,22.90
2019-02-21T08:11:28.494Z,22.70
2019-02-21T08:13:58.882Z,23.60
2019-02-21T08:16:29.291Z,22.77
2019-02-21T08:18:59.643Z,23.87
2019-02-21T08:21:30.027Z,22.97
2019-02-21T08:24:01.093Z,23.77
2019-02-21T08:26:31.677Z,21.93
2019-02-21T08:29:02.164Z,21.23
2019-02-21T08:31:32.864Z,21.43
2019-02-21T08:34:06.874Z,22.00
2019-02-21T08:36:37.238Z,20.90
2019-02-21T08:39:10.378Z,19.77
2019-02-21T08:41:40.757Z,19.67
2019-02-21T08:44:11.094Z,19.43
2019-02-21T08:46:41.750Z,19.63
2019-02-21T08:49:12.110Z,19.63
2019-02-21T08:51:42.414Z,19.70
2019-02-21T08:54:12.787Z,20.07
2019-02-21T08:56:43.511Z,20.07
2019-02-21T08:59:13.884Z,20.30
2019-02-21T09:01:45.806Z,20.67
2019-02-21T09:04:27.001Z,21.40
2019-02-21T09:06:48.832Z,21.67
2019-02-21T09:09:25.802Z,21.90
2019-02-21T09:11:56.566Z,23.13
2019-02-21T09:14:27.537Z,21.60
2019-02-21T09:16:58.190Z,22.97
2019-02-21T09:19:30.523Z,23.83
2019-02-21T09:22:00.590Z,23.73
2019-02-21T09:24:39.193Z,23.03
2019-02-21T09:27:02.958Z,24.13
2019-02-21T09:29:33.349Z,25.43
2019-02-21T09:32:06.748Z,23.87
2019-02-21T09:34:36.107Z,24.93
2019-02-21T09:37:06.484Z,24.83
2019-02-21T09:39:36.837Z,24.10
2019-02-21T09:42:07.318Z,25.67
2019-02-21T09:44:37.650Z,25.23
2019-02-21T09:47:08.359Z,26.40
2019-02-21T09:49:38.705Z,25.77
2019-02-21T09:52:09.983Z,26.07
2019-02-21T09:54:40.584Z,25.63
2019-02-21T09:57:13.541Z,25.93
2019-02-21T09:59:43.034Z,26.50
2019-02-21T10:02:13.750Z,27.67
2019-02-21T10:04:44.394Z,25.97
2019-02-21T10:07:14.728Z,26.30
2019-02-21T10:09:45.129Z,27.07
2019-02-21T10:12:15.785Z,26.60
2019-02-21T10:14:46.191Z,25.77
2019-02-21T10:17:16.569Z,26.73
2019-02-21T10:19:46.890Z,27.13
2019-02-21T10:22:17.782Z,25.60
2019-02-21T10:24:50.136Z,26.30
2019-02-21T10:27:20.468Z,25.27
2019-02-21T10:29:51.081Z,25.63
2019-02-21T10:32:21.875Z,24.57
2019-02-21T10:34:53.127Z,24.07
2019-02-21T10:37:23.524Z,23.97
2019-02-21T10:39:53.881Z,23.70
2019-02-21T10:42:24.590Z,24.63
2019-02-21T10:44:55.334Z,23.13
2019-02-21T10:47:25.776Z,23.00
2019-02-21T10:49:56.104Z,23.63
2019-02-21T10:52:26.439Z,22.80
2019-02-21T10:54:57.375Z,23.30
2019-02-21T10:57:28.072Z,21.50
2019-02-21T10:59:58.739Z,22.27
2019-02-21T11:02:29.178Z,23.03
2019-02-21T11:04:59.839Z,22.43
2019-02-21T11:07:30.209Z,22.43
2019-02-21T11:10:01.219Z,23.43
2019-02-21T11:12:31.682Z,23.13
2019-02-21T11:15:02.290Z,23.80
2019-02-21T11:17:32.948Z,23.97
2019-02-21T11:20:03.991Z,23.47
2019-02-21T11:22:34.854Z,23.73
2019-02-21T11:25:05.378Z,24.00
2019-02-21T11:27:35.817Z,23.47
2019-02-21T11:30:08.592Z,24.60
2019-02-21T11:32:39.384Z,22.60
2019-02-21T11:35:10.489Z,23.07
2019-02-21T11:37:44.355Z,23.53
2019-02-21T11:40:14.905Z,24.50
2019-02-21T11:42:45.437Z,24.80
2019-02-21T11:45:16.649Z,23.43
2019-02-21T11:47:47.316Z,24.37
2019-02-21T11:50:18.125Z,25.33
2019-02-21T11:52:48.573Z,23.53
2019-02-21T11:55:21.422Z,22.87
2019-02-21T11:57:51.812Z,23.83
2019-02-21T12:00:24.574Z,23.97
2019-02-21T12:02:54.986Z,23.77
2019-02-21T12:05:31.488Z,22.93
2019-02-21T12:07:57.546Z,23.77
2019-02-21T12:10:28.229Z,22.90
2019-02-21T12:12:58.944Z,23.77
2019-02-21T12:15:29.467Z,23.10
2019-02-21T12:18:00.508Z,22.80
2019-02-21T12:20:30.910Z,22.27
2019-02-21T12:23:01.613Z,21.23
2019-02-21T12:25:31.967Z,19.60
2019-02-21T12:28:02.602Z,18.67
2019-02-21T12:30:33.506Z,15.67
2019-02-21T12:33:03.927Z,15.60
2019-02-21T12:35:34.347Z,14.93
2019-02-21T12:38:04.846Z,14.90
2019-02-21T12:40:35.570Z,14.57
2019-02-21T12:43:06.088Z,16.23
2019-02-21T12:45:36.462Z,15.27
2019-02-21T12:48:06.807Z,14.87
2019-02-21T12:50:44.365Z,15.93
2019-02-21T12:53:09.645Z,15.97
2019-02-21T12:55:40.260Z,16.07
2019-02-21T12:58:10.642Z,15.60
2019-02-21T13:00:41.148Z,15.77
2019-02-21T13:03:11.501Z,16.20
2019-02-21T13:05:44.463Z,16.70
2019-02-21T13:08:14.635Z,17.13
2019-02-21T13:10:45.337Z,20.27
2019-02-21T13:13:16.259Z,18.80
2019-02-21T13:15:46.595Z,17.80
2019-02-21T13:18:17.073Z,18.30
2019-02-21T13:20:47.447Z,18.63
2019-02-21T13:23:18.165Z,18.43
2019-02-21T13:25:48.634Z,20.27
2019-02-21T13:28:18.994Z,19.90
2019-02-21T13:30:49.627Z,20.03
2019-02-21T13:33:20.112Z,20.10
2019-02-21T13:35:52.936Z,20.60
2019-02-21T13:38:22.880Z,19.93
2019-02-21T13:40:53.286Z,19.67
2019-02-21T13:43:23.913Z,20.23
2019-02-21T13:45:54.542Z,20.47
2019-02-21T13:48:24.913Z,20.13
2019-02-21T13:50:56.664Z,20.30
2019-02-21T13:53:27.015Z,19.80
2019-02-21T13:55:57.393Z,22.10
2019-02-21T13:58:27.794Z,21.20
2019-02-21T14:00:58.195Z,24.07
2019-02-21T14:03:28.509Z,21.97
2019-02-21T14:06:03.705Z,22.00
2019-02-21T14:08:31.427Z,21.90
2019-02-21T14:11:02.108Z,21.13
2019-02-21T14:13:32.476Z,22.67
2019-02-21T14:16:03.114Z,23.10
2019-02-21T14:18:33.540Z,22.40
2019-02-21T14:21:03.924Z,22.47
2019-02-21T14:23:34.237Z,21.30
2019-02-21T14:26:04.627Z,20.60
2019-02-21T14:28:37.530Z,21.20
2019-02-21T14:31:08.200Z,21.87
2019-02-21T14:33:38.616Z,20.20
2019-02-21T14:36:15.931Z,20.40
2019-02-21T14:38:41.079Z,19.73
2019-02-21T14:41:11.443Z,19.97
2019-02-21T14:43:41.852Z,19.53
2019-02-21T14:46:12.452Z,20.13
2019-02-21T14:48:42.823Z,19.03
2019-02-21T14:51:13.448Z,17.90
2019-02-21T14:53:44.321Z,18.73
2019-02-21T14:56:14.746Z,18.57
2019-02-21T14:58:45.724Z,17.33
2019-02-21T15:01:17.516Z,18.40
2019-02-21T15:03:48.222Z,18.00
2019-02-21T15:06:26.773Z,17.67
2019-02-21T15:08:51.453Z,17.27
2019-02-21T15:11:21.890Z,17.97
2019-02-21T15:13:52.285Z,17.60
2019-02-21T15:16:22.675Z,16.93
2019-02-21T15:18:55.278Z,17.83
2019-02-21T15:21:25.250Z,16.73
2019-02-21T15:23:55.784Z,16.90
2019-02-21T15:26:26.255Z,17.47
2019-02-21T15:28:56.667Z,17.80
2019-02-21T15:31:27.184Z,17.97
2019-02-21T15:33:57.559Z,17.03
2019-02-21T15:36:38.009Z,16.87
2019-02-21T15:39:00.511Z,17.07
2019-02-21T15:41:31.330Z,17.33
2019-02-21T15:44:01.678Z,18.00
2019-02-21T15:46:32.532Z,14.40
2019-02-21T15:49:02.889Z,13.93
2019-02-21T15:51:33.255Z,14.70
2019-02-21T15:54:03.704Z,13.80
2019-02-21T15:56:34.504Z,14.13
2019-02-21T15:59:04.967Z,14.20
2019-02-21T16:01:47.058Z,13.57
2019-02-21T16:04:07.699Z,14.00
2019-02-21T16:06:50.774Z,13.93
2019-02-21T16:09:16.335Z,14.23
2019-02-21T16:11:43.067Z,13.90
2019-02-21T16:14:13.661Z,14.33
2019-02-21T16:16:44.000Z,14.43
2019-02-21T16:19:14.448Z,13.60
2019-02-21T16:21:45.895Z,14.63
2019-02-21T16:24:18.738Z,14.53
2019-02-21T16:26:54.587Z,14.40
2019-02-21T16:29:26.096Z,14.80
2019-02-21T16:31:59.719Z,14.17
2019-02-21T16:34:30.135Z,14.73
2019-02-21T16:37:02.661Z,13.50
2019-02-21T16:39:33.087Z,14.77
2019-02-21T16:42:03.588Z,14.23
2019-02-21T16:44:33.950Z,14.77
2019-02-21T16:47:05.794Z,14.80
2019-02-21T16:49:36.391Z,14.73
2019-02-21T16:52:07.903Z,14.57
2019-02-21T16:54:39.022Z,14.63
2019-02-21T16:57:09.786Z,14.20
2019-02-21T16:59:43.222Z,13.53
2019-02-21T17:02:15.334Z,13.63
2019-02-21T17:04:45.807Z,14.77
2019-02-21T17:07:20.221Z,14.53
2019-02-21T17:09:48.749Z,14.73
2019-02-21T17:12:19.475Z,15.17
2019-02-21T17:15:10.187Z,15.40
2019-02-21T17:17:40.547Z,14.90
2019-02-21T17:20:13.459Z,15.07
2019-02-21T17:22:45.888Z,15.67
2019-02-21T17:25:22.768Z,15.30
2019-02-21T17:27:53.156Z,21.37
2019-02-21T17:30:24.138Z,16.27
2019-02-21T17:32:56.509Z,16.40
2019-02-21T17:35:38.154Z,16.13
2019-02-21T17:38:08.876Z,17.70
2019-02-21T17:40:39.948Z,16.77
2019-02-21T17:43:10.729Z,16.77
2019-02-21T17:45:46.490Z,18.67
2019-02-21T17:48:17.804Z,18.40
2019-02-21T17:50:48.143Z,18.47
2019-02-21T17:53:22.885Z,20.20
2019-02-21T17:55:53.928Z,22.50
2019-02-21T17:58:24.559Z,22.30
2019-02-21T18:00:55.051Z,22.00
2019-02-21T18:03:25.414Z,21.73
2019-02-21T18:05:56.266Z,21.70
2019-02-21T18:08:26.767Z,22.20
2019-02-21T18:10:57.475Z,24.33
2019-02-21T18:13:28.712Z,24.43
2019-02-21T18:15:59.459Z,24.47
2019-02-21T18:18:29.796Z,24.70
2019-02-21T18:21:00.423Z,26.20
2019-02-21T18:23:30.749Z,26.67
2019-02-21T18:26:13.706Z,26.73
2019-02-21T18:28:45.117Z,28.07
2019-02-21T18:31:15.522Z,29.03
2019-02-21T18:33:45.875Z,27.57
2019-02-21T18:36:16.603Z,28.50
2019-02-21T18:38:47.290Z,27.93
2019-02-21T18:41:17.752Z,30.63
2019-02-21T18:43:48.351Z,30.73
2019-02-21T18:46:18.840Z,30.90
2019-02-21T18:48:49.206Z,32.50
2019-02-21T18:51:19.973Z,32.97
2019-02-21T18:53:50.345Z,34.03
2019-02-21T18:56:20.707Z,36.00
2019-02-21T18:58:51.119Z,35.10
2019-02-21T19:01:21.862Z,35.43
2019-02-21T19:03:52.216Z,36.00
2019-02-21T19:06:22.595Z,34.27
2019-02-21T19:08:53.855Z,36.03
2019-02-21T19:11:24.717Z,35.27
2019-02-21T19:14:01.218Z,36.43
2019-02-21T19:16:31.832Z,35.97
2019-02-21T19:19:06.355Z,37.77
2019-02-21T19:21:36.689Z,37.83
2019-02-21T19:24:08.073Z,38.73
2019-02-21T19:26:38.717Z,39.37
2019-02-21T19:29:09.135Z,41.00
2019-02-21T19:31:39.563Z,42.93
2019-02-21T19:34:09.987Z,43.37
2019-02-21T19:36:42.409Z,44.60
2019-02-21T19:39:13.152Z,45.50
2019-02-21T19:41:43.763Z,48.60
2019-02-21T19:44:14.643Z,48.33
2019-02-21T19:46:45.070Z,48.17
2019-02-21T19:49:16.167Z,47.13
2019-02-21T19:51:46.682Z,49.10
2019-02-21T19:54:18.230Z,51.67
2019-02-21T19:56:49.433Z,49.33
2019-02-21T19:59:20.461Z,50.33
2019-02-21T20:01:51.157Z,51.17
2019-02-21T20:04:22.225Z,46.90
2019-02-21T20:06:52.555Z,46.13
2019-02-21T20:09:23.099Z,46.77
2019-02-21T20:11:53.475Z,44.77
2019-02-21T20:14:23.896Z,44.17
2019-02-21T20:16:54.768Z,44.30
2019-02-21T20:19:25.154Z,43.67
2019-02-21T20:21:55.816Z,41.60
2019-02-21T20:24:26.319Z,39.23
2019-02-21T20:27:04.812Z,37.20
2019-02-21T20:29:35.219Z,36.60
2019-02-21T20:32:05.701Z,32.37
2019-02-21T20:34:36.778Z,28.40
2019-02-21T20:37:07.525Z,28.57
2019-02-21T20:39:38.848Z,29.03
2019-02-21T20:42:09.366Z,27.67
2019-02-21T20:44:39.930Z,26.90
2019-02-21T20:47:15.796Z,26.77
2019-02-21T20:49:46.172Z,26.37
2019-02-21T20:52:16.579Z,26.93
2019-02-21T20:54:46.943Z,25.93
2019-02-21T20:57:17.336Z,25.27
2019-02-21T20:59:47.713Z,25.17
2019-02-21T21:02:18.096Z,26.23
2019-02-21T21:04:48.890Z,27.47
2019-02-21T21:07:25.008Z,26.10
2019-02-21T21:09:51.707Z,25.67
2019-02-21T21:12:22.167Z,26.23
2019-02-21T21:14:52.544Z,24.37
2019-02-21T21:17:22.893Z,23.60
2019-02-21T21:19:53.251Z,23.83
2019-02-21T21:22:29.515Z,24.57
2019-02-21T21:24:59.912Z,25.10
2019-02-21T21:27:30.326Z,24.27
2019-02-21T21:30:00.719Z,23.23
2019-02-21T21:32:37.366Z,23.50
2019-02-21T21:35:08.365Z,23.10
2019-02-21T21:37:38.771Z,23.87
2019-02-21T21:40:12.029Z,24.23
2019-02-21T21:42:42.396Z,23.67
2019-02-21T21:45:15.613Z,25.60
2019-02-21T21:47:46.138Z,25.43
2019-02-21T21:50:17.654Z,23.30
2019-02-21T21:52:48.389Z,25.10
2019-02-21T21:55:18.780Z,25.90
2019-02-21T21:57:49.516Z,24.03
2019-02-21T22:00:24.151Z,25.13
2019-02-21T22:02:54.514Z,23.87
2019-02-21T22:05:25.188Z,25.70
2019-02-21T22:07:56.063Z,25.57
2019-02-21T22:10:26.942Z,24.63
2019-02-21T22:12:57.618Z,26.13
2019-02-21T22:15:28.053Z,25.37
2019-02-21T22:17:58.460Z,24.90
2019-02-21T22:20:28.901Z,25.43
2019-02-21T22:23:01.998Z,26.00
2019-02-21T22:25:31.694Z,25.93
2019-02-21T22:28:02.616Z,25.93
2019-02-21T22:30:33.487Z,27.33
2019-02-21T22:33:04.162Z,26.10
2019-02-21T22:35:34.820Z,27.60
2019-02-21T22:38:05.489Z,27.60
2019-02-21T22:40:35.876Z,28.17
2019-02-21T22:43:06.275Z,29.43
2019-02-21T22:45:36.619Z,29.10
2019-02-21T22:48:07.131Z,28.43
2019-02-21T22:50:37.568Z,29.33
2019-02-21T22:53:07.873Z,28.57
2019-02-21T22:55:38.305Z,30.20
2019-02-21T22:58:08.645Z,28.97
2019-02-21T23:01:03.353Z,29.33
2019-02-21T23:03:55.185Z,29.77
2019-02-21T23:06:43.559Z,30.57
2019-02-21T23:09:27.168Z,31.33
2019-02-21T23:11:51.319Z,31.53
2019-02-21T23:14:21.710Z,32.97
2019-02-21T23:16:52.722Z,32.53
2019-02-21T23:19:24.223Z,32.00
2019-02-21T23:21:54.726Z,33.73
2019-02-21T23:24:25.527Z,33.17
2019-02-21T23:26:55.844Z,31.77
2019-02-21T23:29:26.252Z,31.27
2019-02-21T23:31:56.636Z,32.43
2019-02-21T23:34:42.147Z,33.70
2019-02-21T23:37:12.636Z,33.37
2019-02-21T23:39:43.299Z,33.13
2019-02-21T23:42:13.651Z,34.43
2019-02-21T23:44:44.723Z,33.23
2019-02-21T23:47:15.165Z,34.10
2019-02-21T23:49:45.507Z,34.03
2019-02-21T23:52:15.871Z,32.93
2019-02-21T23:54:46.460Z,33.30
2019-02-21T23:57:16.964Z,33.73
2019-02-21T23:59:47.285Z,34.10
